createdAt,value
2018-02-13T00:02:19.084Z,76.42
2018-02-13T00:04:45.420Z,76.38
2018-02-13T00:07:11.949Z,77.04
2018-02-13T00:09:38.280Z,77.37
2018-02-13T00:12:04.613Z,77.43
2018-02-13T00:14:30.981Z,76.44
2018-02-13T00:16:57.376Z,77.03
2018-02-13T00:19:23.764Z,76.64
2018-02-13T00:21:50.197Z,76.40
2018-02-13T00:24:16.555Z,77.79
2018-02-13T00:26:42.977Z,78.00
2018-02-13T00:29:09.322Z,77.36
2018-02-13T00:31:35.709Z,76.51
2018-02-13T00:34:02.132Z,76.49
2018-02-13T00:36:28.594Z,76.23
2018-02-13T00:38:55.109Z,76.26
2018-02-13T00:41:21.532Z,76.00
2018-02-13T00:43:47.952Z,76.51
2018-02-13T00:46:14.365Z,76.42
2018-02-13T00:48:40.732Z,76.65
2018-02-13T00:51:07.084Z,76.95
2018-02-13T00:53:33.669Z,76.76
2018-02-13T00:56:01.053Z,76.90
2018-02-13T00:58:27.457Z,77.12
2018-02-13T01:00:53.872Z,77.51
2018-02-13T01:03:20.221Z,77.15
2018-02-13T01:05:46.605Z,77.11
2018-02-13T01:08:13.109Z,77.72
2018-02-13T01:10:39.541Z,77.91
2018-02-13T01:13:05.929Z,77.78
2018-02-13T01:15:32.322Z,77.43
2018-02-13T01:17:58.704Z,77.72
2018-02-13T01:20:25.152Z,77.61
2018-02-13T01:22:51.540Z,77.76
2018-02-13T01:25:17.944Z,77.17
2018-02-13T01:27:44.429Z,77.95
2018-02-13T01:30:10.861Z,77.97
2018-02-13T01:32:37.261Z,78.13
2018-02-13T01:35:03.704Z,78.28
2018-02-13T01:37:30.138Z,78.31
2018-02-13T01:39:56.493Z,78.39
2018-02-13T01:42:22.925Z,78.22
2018-02-13T01:44:49.416Z,78.01
2018-02-13T01:47:15.973Z,77.08
2018-02-13T01:49:42.404Z,75.94
2018-02-13T01:52:08.772Z,76.24
2018-02-13T01:54:35.145Z,76.74
2018-02-13T01:57:01.501Z,76.37
2018-02-13T01:59:27.941Z,77.48
2018-02-13T02:01:54.344Z,77.96
2018-02-13T02:04:20.876Z,78.42
2018-02-13T02:06:47.293Z,77.42
2018-02-13T02:09:13.692Z,77.42
2018-02-13T02:11:40.053Z,77.98
2018-02-13T02:14:06.488Z,78.00
2018-02-13T02:16:32.845Z,77.98
2018-02-13T02:18:59.216Z,77.51
2018-02-13T02:21:25.653Z,77.22
2018-02-13T02:23:52.038Z,77.05
2018-02-13T02:26:18.449Z,77.05
2018-02-13T02:28:44.859Z,76.92
2018-02-13T02:31:11.307Z,77.39
2018-02-13T02:33:37.712Z,77.63
2018-02-13T02:36:04.146Z,77.73
2018-02-13T02:38:30.601Z,76.62
2018-02-13T02:40:56.988Z,76.26
2018-02-13T02:43:23.662Z,77.21
2018-02-13T02:45:50.053Z,77.40
2018-02-13T02:48:16.422Z,77.31
2018-02-13T02:50:42.844Z,77.05
2018-02-13T02:53:09.236Z,76.56
2018-02-13T02:55:35.624Z,76.43
2018-02-13T02:58:02.202Z,76.78
2018-02-13T03:00:28.641Z,77.43
2018-02-13T03:02:55.088Z,77.30
2018-02-13T03:05:21.509Z,77.44
2018-02-13T03:07:47.889Z,77.26
2018-02-13T03:10:14.352Z,77.40
2018-02-13T03:12:40.744Z,77.49
2018-02-13T03:15:07.087Z,77.33
2018-02-13T03:17:33.488Z,77.87
2018-02-13T03:19:59.850Z,77.68
2018-02-13T03:22:26.231Z,77.30
2018-02-13T03:24:52.625Z,76.70
2018-02-13T03:27:19.017Z,77.06
2018-02-13T03:29:45.379Z,77.25
2018-02-13T03:32:11.784Z,77.41
2018-02-13T03:34:38.269Z,76.92
2018-02-13T03:37:04.629Z,77.79
2018-02-13T03:39:31.040Z,78.12
2018-02-13T03:41:57.413Z,78.27
2018-02-13T03:44:23.797Z,78.53
2018-02-13T03:46:50.237Z,78.28
2018-02-13T03:49:16.713Z,77.64
2018-02-13T03:51:43.081Z,76.49
2018-02-13T03:54:09.506Z,76.39
2018-02-13T03:56:35.933Z,76.73
2018-02-13T03:59:02.277Z,77.01
2018-02-13T04:01:28.775Z,77.78
2018-02-13T04:03:55.164Z,77.77
2018-02-13T04:06:21.555Z,77.18
2018-02-13T04:08:48.021Z,77.65
2018-02-13T04:11:14.404Z,77.57
2018-02-13T04:13:40.817Z,77.56
2018-02-13T04:16:07.309Z,76.75
2018-02-13T04:18:33.684Z,76.30
2018-02-13T04:21:00.081Z,76.43
2018-02-13T04:23:26.460Z,77.40
2018-02-13T04:25:52.834Z,77.71
2018-02-13T04:28:19.212Z,77.80
2018-02-13T04:30:45.766Z,78.27
2018-02-13T04:33:12.125Z,77.81
2018-02-13T04:35:38.636Z,77.42
2018-02-13T04:38:05.156Z,77.27
2018-02-13T04:40:31.528Z,76.88
2018-02-13T04:42:57.897Z,75.96
2018-02-13T04:45:24.349Z,75.57
2018-02-13T04:47:50.792Z,76.08
2018-02-13T04:50:17.292Z,76.94
2018-02-13T04:52:43.700Z,76.93
2018-02-13T04:55:10.077Z,76.72
2018-02-13T04:57:36.426Z,76.33
2018-02-13T05:00:02.995Z,75.27
2018-02-13T05:02:29.348Z,75.84
2018-02-13T05:04:55.717Z,76.53
2018-02-13T05:07:22.067Z,77.13
2018-02-13T05:09:48.445Z,77.39
2018-02-13T05:12:14.804Z,75.96
2018-02-13T05:14:41.212Z,75.65
2018-02-13T05:17:07.576Z,75.79
2018-02-13T05:19:33.912Z,75.82
2018-02-13T05:22:00.312Z,75.58
2018-02-13T05:24:26.744Z,75.21
2018-02-13T05:26:53.151Z,75.20
2018-02-13T05:29:19.604Z,75.14
2018-02-13T05:31:46.034Z,75.59
2018-02-13T05:34:12.400Z,75.56
2018-02-13T05:36:38.801Z,75.50
2018-02-13T05:39:05.160Z,75.61
2018-02-13T05:41:31.596Z,75.48
2018-02-13T05:43:59.267Z,75.44
2018-02-13T05:46:25.894Z,75.45
2018-02-13T05:48:52.504Z,75.42
2018-02-13T05:51:20.370Z,75.50
2018-02-13T05:53:47.277Z,75.53
2018-02-13T05:56:14.289Z,75.17
2018-02-13T05:58:40.773Z,75.22
2018-02-13T06:01:07.152Z,75.50
2018-02-13T06:03:40.369Z,75.44
2018-02-13T06:06:06.918Z,75.36
2018-02-13T06:08:33.424Z,74.60
2018-02-13T06:10:59.829Z,75.07
2018-02-13T06:13:26.229Z,75.67
2018-02-13T06:15:52.665Z,75.98
2018-02-13T06:18:19.072Z,75.52
2018-02-13T06:20:45.527Z,75.87
2018-02-13T06:23:11.888Z,76.26
2018-02-13T06:25:38.336Z,76.35
2018-02-13T06:28:04.776Z,76.11
2018-02-13T06:30:31.163Z,76.70
2018-02-13T06:32:57.553Z,77.54
2018-02-13T06:35:23.937Z,77.93
2018-02-13T06:37:50.412Z,76.86
2018-02-13T06:40:17.292Z,76.08
2018-02-13T06:42:44.053Z,76.96
2018-02-13T06:45:10.412Z,77.81
2018-02-13T06:47:36.752Z,77.22
2018-02-13T06:50:03.131Z,77.43
2018-02-13T06:52:29.785Z,76.63
2018-02-13T06:54:56.146Z,76.24
2018-02-13T06:57:22.516Z,75.84
2018-02-13T06:59:48.937Z,75.55
2018-02-13T07:02:15.367Z,75.18
2018-02-13T07:04:41.776Z,74.51
2018-02-13T07:07:08.156Z,74.41
2018-02-13T07:09:34.609Z,74.88
2018-02-13T07:12:01.140Z,75.94
2018-02-13T07:14:27.926Z,75.44
2018-02-13T07:16:54.668Z,75.07
2018-02-13T07:19:21.130Z,75.27
2018-02-13T07:21:47.601Z,74.98
2018-02-13T07:24:14.010Z,74.56
2018-02-13T07:26:40.444Z,74.74
2018-02-13T07:29:07.353Z,74.78
2018-02-13T07:31:33.746Z,75.36
2018-02-13T07:34:00.170Z,75.02
2018-02-13T07:36:26.612Z,74.84
2018-02-13T07:38:53.169Z,74.83
2018-02-13T07:41:19.645Z,75.26
2018-02-13T07:43:46.248Z,75.83
2018-02-13T07:46:12.641Z,75.96
2018-02-13T07:48:39.166Z,76.51
2018-02-13T07:51:05.741Z,75.85
2018-02-13T07:53:40.353Z,75.84
2018-02-13T07:56:06.873Z,75.37
2018-02-13T07:58:33.270Z,75.51
2018-02-13T08:00:59.909Z,75.44
2018-02-13T08:03:26.397Z,75.60
2018-02-13T08:05:52.813Z,75.27
2018-02-13T08:08:19.306Z,74.92
2018-02-13T08:10:45.833Z,74.50
2018-02-13T08:13:12.265Z,74.37
2018-02-13T08:15:38.733Z,74.39
2018-02-13T08:18:05.083Z,74.37
2018-02-13T08:20:31.585Z,73.82
2018-02-13T08:22:57.944Z,73.36
2018-02-13T08:25:24.413Z,73.61
2018-02-13T08:27:50.929Z,73.35
2018-02-13T08:30:17.353Z,72.90
2018-02-13T08:32:44.000Z,72.85
2018-02-13T08:35:10.381Z,71.91
2018-02-13T08:37:36.799Z,72.31
2018-02-13T08:40:03.197Z,72.61
2018-02-13T08:42:29.625Z,72.34
2018-02-13T08:44:56.108Z,72.82
2018-02-13T08:47:22.652Z,72.08
2018-02-13T08:49:49.121Z,71.72
2018-02-13T08:52:15.592Z,71.77
2018-02-13T08:54:42.034Z,71.94
2018-02-13T08:57:08.428Z,72.76
2018-02-13T08:59:34.856Z,72.85
2018-02-13T09:02:01.273Z,71.78
2018-02-13T09:04:27.756Z,71.90
2018-02-13T09:06:54.248Z,70.35
2018-02-13T09:09:20.642Z,70.70
2018-02-13T09:11:47.085Z,70.84
2018-02-13T09:14:13.518Z,71.41
2018-02-13T09:16:39.951Z,71.55
2018-02-13T09:19:06.472Z,71.44
2018-02-13T09:21:32.998Z,71.02
2018-02-13T09:23:59.474Z,70.45
2018-02-13T09:26:25.899Z,69.94
2018-02-13T09:28:52.440Z,69.40
2018-02-13T09:31:18.904Z,69.36
2018-02-13T09:33:45.276Z,69.81
2018-02-13T09:36:11.746Z,68.76
2018-02-13T09:38:38.192Z,69.30
2018-02-13T09:41:04.863Z,69.19
2018-02-13T09:43:31.333Z,67.46
2018-02-13T09:45:57.849Z,69.08
2018-02-13T09:48:24.333Z,68.90
2018-02-13T09:50:50.728Z,66.85
2018-02-13T09:53:17.172Z,66.63
2018-02-13T09:55:44.028Z,67.45
2018-02-13T09:58:10.517Z,67.91
2018-02-13T10:00:36.913Z,68.34
2018-02-13T10:03:03.255Z,66.70
2018-02-13T10:05:29.716Z,67.22
2018-02-13T10:07:56.117Z,68.37
2018-02-13T10:10:22.548Z,68.39
2018-02-13T10:12:49.000Z,68.99
2018-02-13T10:15:15.388Z,68.90
2018-02-13T10:17:41.893Z,67.27
2018-02-13T10:20:08.356Z,67.52
2018-02-13T10:22:34.899Z,66.91
2018-02-13T10:25:01.413Z,68.28
2018-02-13T10:27:28.057Z,67.13
2018-02-13T10:29:54.492Z,68.20
2018-02-13T10:32:20.984Z,67.87
2018-02-13T10:34:47.500Z,67.26
2018-02-13T10:37:13.952Z,67.91
2018-02-13T10:39:40.416Z,67.48
2018-02-13T10:42:06.981Z,67.99
2018-02-13T10:44:33.633Z,68.16
2018-02-13T10:47:00.341Z,68.68
2018-02-13T10:49:26.822Z,68.15
2018-02-13T10:51:53.342Z,68.82
2018-02-13T10:54:19.837Z,67.98
2018-02-13T10:56:46.284Z,68.66
2018-02-13T10:59:12.709Z,68.99
2018-02-13T11:01:39.184Z,68.79
2018-02-13T11:04:05.620Z,69.55
2018-02-13T11:06:32.049Z,69.47
2018-02-13T11:08:58.974Z,69.07
2018-02-13T11:11:25.485Z,68.19
2018-02-13T11:13:52.005Z,68.17
2018-02-13T11:16:18.352Z,69.34
2018-02-13T11:18:44.807Z,69.43
2018-02-13T11:21:11.250Z,69.13
2018-02-13T11:23:37.718Z,69.20
2018-02-13T11:26:04.178Z,68.98
2018-02-13T11:28:30.648Z,68.06
2018-02-13T11:30:57.068Z,68.42
2018-02-13T11:33:23.572Z,68.85
2018-02-13T11:35:49.968Z,67.27
2018-02-13T11:38:16.364Z,66.80
2018-02-13T11:40:42.877Z,66.37
2018-02-13T11:43:09.453Z,66.06
2018-02-13T11:45:35.949Z,65.94
2018-02-13T11:48:02.361Z,65.79
2018-02-13T11:50:28.819Z,65.13
2018-02-13T11:52:55.249Z,65.77
2018-02-13T11:55:21.625Z,65.46
2018-02-13T11:57:48.031Z,65.76
2018-02-13T12:00:14.459Z,66.33
2018-02-13T12:02:42.717Z,67.07
2018-02-13T12:05:09.277Z,67.27
2018-02-13T12:07:35.729Z,66.81
2018-02-13T12:10:02.181Z,66.46
2018-02-13T12:12:28.628Z,66.88
2018-02-13T12:14:55.048Z,66.88
2018-02-13T12:17:21.484Z,66.63
2018-02-13T12:19:47.969Z,65.65
2018-02-13T12:22:14.489Z,66.13
2018-02-13T12:24:40.934Z,65.95
2018-02-13T12:27:07.453Z,65.59
2018-02-13T12:29:34.515Z,65.18
2018-02-13T12:32:01.092Z,65.51
2018-02-13T12:34:28.835Z,65.81
2018-02-13T12:36:56.364Z,65.99
2018-02-13T12:39:23.312Z,66.08
2018-02-13T12:41:50.077Z,66.03
2018-02-13T12:44:16.614Z,66.22
2018-02-13T12:46:43.217Z,66.45
2018-02-13T12:49:09.737Z,66.57
2018-02-13T12:51:36.446Z,67.08
2018-02-13T12:54:03.005Z,67.19
2018-02-13T12:56:29.415Z,66.98
2018-02-13T12:58:56.034Z,66.74
2018-02-13T13:01:22.488Z,66.73
2018-02-13T13:17:13.566Z,67.72
2018-02-13T13:19:39.913Z,67.89
2018-02-13T13:22:06.301Z,67.62
2018-02-13T13:24:32.827Z,67.95
2018-02-13T13:26:59.192Z,67.71
2018-02-13T13:29:25.642Z,67.48
2018-02-13T13:31:52.100Z,67.75
2018-02-13T13:34:18.665Z,67.98
2018-02-13T13:36:45.125Z,67.83
2018-02-13T13:39:11.583Z,68.43
2018-02-13T13:41:38.052Z,68.12
2018-02-13T13:44:04.484Z,68.17
2018-02-13T13:46:30.949Z,68.08
2018-02-13T13:48:57.425Z,68.66
2018-02-13T13:51:23.854Z,68.06
2018-02-13T13:53:50.214Z,69.28
2018-02-13T13:56:16.709Z,68.74
2018-02-13T13:58:43.128Z,68.89
2018-02-13T14:01:09.763Z,69.08
2018-02-13T14:03:36.375Z,68.56
2018-02-13T14:06:02.784Z,69.88
2018-02-13T14:08:29.325Z,69.95
2018-02-13T14:10:55.838Z,68.86
2018-02-13T14:13:22.435Z,68.75
2018-02-13T14:15:48.988Z,69.32
2018-02-13T14:18:15.568Z,69.11
2018-02-13T14:20:41.997Z,69.18
2018-02-13T14:23:09.418Z,68.98
2018-02-13T14:25:35.829Z,69.69
2018-02-13T14:28:02.365Z,69.73
2018-02-13T14:30:29.337Z,69.68
2018-02-13T14:32:55.825Z,70.51
2018-02-13T14:35:22.261Z,70.16
2018-02-13T14:37:48.729Z,70.31
2018-02-13T14:40:15.203Z,69.88
2018-02-13T14:42:41.697Z,70.32
2018-02-13T14:45:08.148Z,70.07
2018-02-13T14:47:34.676Z,69.79
2018-02-13T14:50:01.097Z,69.99
2018-02-13T14:52:27.579Z,70.82
2018-02-13T14:54:54.152Z,70.05
2018-02-13T14:57:21.113Z,70.45
2018-02-13T14:59:47.729Z,69.88
2018-02-13T15:02:14.310Z,69.86
2018-02-13T15:04:40.801Z,70.96
2018-02-13T15:07:07.200Z,70.22
2018-02-13T15:09:33.570Z,70.89
2018-02-13T15:12:00.193Z,70.29
2018-02-13T15:14:26.622Z,70.54
2018-02-13T15:16:56.444Z,69.98
2018-02-13T15:19:22.985Z,70.17
2018-02-13T15:21:49.387Z,70.44
2018-02-13T15:24:15.893Z,69.99
2018-02-13T15:26:42.563Z,69.85
2018-02-13T15:29:10.884Z,69.79
2018-02-13T15:31:37.424Z,69.52
2018-02-13T15:34:03.917Z,69.34
2018-02-13T15:36:30.348Z,69.32
2018-02-13T15:38:56.925Z,69.68
2018-02-13T15:41:23.369Z,69.55
2018-02-13T15:43:49.854Z,69.52
2018-02-13T15:46:16.290Z,69.32
2018-02-13T15:48:42.698Z,69.28
2018-02-13T15:51:09.141Z,69.35
2018-02-13T15:53:35.621Z,69.72
2018-02-13T15:56:02.045Z,69.95
2018-02-13T15:58:28.508Z,70.48
2018-02-13T16:00:54.960Z,70.73
2018-02-13T16:03:21.368Z,70.15
2018-02-13T16:05:47.808Z,70.32
2018-02-13T16:08:16.035Z,70.30
2018-02-13T16:10:42.692Z,71.52
2018-02-13T16:13:09.069Z,71.06
2018-02-13T16:15:35.589Z,70.61
2018-02-13T16:18:02.028Z,71.03
2018-02-13T16:20:28.437Z,71.02
2018-02-13T16:22:54.868Z,70.48
2018-02-13T16:25:21.337Z,71.09
2018-02-13T16:27:47.704Z,70.56
2018-02-13T16:30:14.123Z,70.66
2018-02-13T16:32:40.660Z,71.13
2018-02-13T16:35:07.077Z,70.81
2018-02-13T16:37:33.493Z,71.07
2018-02-13T16:39:59.965Z,71.62
2018-02-13T16:42:26.353Z,70.78
2018-02-13T16:44:52.761Z,71.27
2018-02-13T16:47:19.192Z,71.57
2018-02-13T16:49:45.621Z,71.72
2018-02-13T16:52:12.172Z,72.11
2018-02-13T16:54:38.687Z,72.04
2018-02-13T16:57:05.076Z,72.28
2018-02-13T16:59:31.587Z,72.45
2018-02-13T17:01:58.349Z,71.56
2018-02-13T17:04:24.726Z,73.05
2018-02-13T17:06:51.252Z,72.14
2018-02-13T17:09:17.636Z,72.29
2018-02-13T17:11:44.053Z,72.26
2018-02-13T17:14:10.448Z,72.50
2018-02-13T17:16:36.856Z,73.30
2018-02-13T17:19:03.405Z,73.70
2018-02-13T17:21:29.760Z,73.45
2018-02-13T17:23:56.132Z,73.10
2018-02-13T17:26:22.588Z,72.40
2018-02-13T17:28:49.006Z,72.51
2018-02-13T17:31:15.436Z,73.11
2018-02-13T17:33:41.991Z,73.10
2018-02-13T17:36:08.417Z,73.62
2018-02-13T17:38:34.853Z,72.67
2018-02-13T17:41:01.333Z,73.13
2018-02-13T17:43:27.717Z,73.18
2018-02-13T17:45:54.162Z,72.73
2018-02-13T17:48:20.586Z,73.26
2018-02-13T17:50:46.958Z,73.07
2018-02-13T17:53:13.496Z,73.12
2018-02-13T17:55:39.861Z,74.50
2018-02-13T17:58:06.240Z,73.63
2018-02-13T18:00:32.644Z,73.63
2018-02-13T18:02:59.058Z,73.63
2018-02-13T18:05:25.484Z,73.54
2018-02-13T18:07:51.950Z,73.17
2018-02-13T18:10:18.409Z,73.72
2018-02-13T18:12:44.906Z,73.11
2018-02-13T18:15:11.306Z,73.33
2018-02-13T18:17:37.720Z,73.38
2018-02-13T18:20:04.295Z,73.13
2018-02-13T18:22:30.957Z,73.90
2018-02-13T18:24:57.414Z,73.75
2018-02-13T18:27:23.837Z,73.64
2018-02-13T18:29:50.252Z,74.29
2018-02-13T18:32:16.714Z,74.55
2018-02-13T18:34:43.173Z,74.66
2018-02-13T18:37:09.653Z,74.31
2018-02-13T18:39:36.061Z,74.22
2018-02-13T18:42:02.578Z,74.45
2018-02-13T18:44:29.264Z,74.69
2018-02-13T18:46:55.721Z,74.74
2018-02-13T18:49:22.104Z,73.88
2018-02-13T18:51:48.524Z,74.08
2018-02-13T18:54:14.969Z,74.57
2018-02-13T18:56:41.393Z,74.74
2018-02-13T18:59:07.760Z,74.17
2018-02-13T19:01:34.342Z,74.12
2018-02-13T19:04:00.751Z,73.84
2018-02-13T19:06:27.109Z,73.76
2018-02-13T19:08:53.476Z,74.07
2018-02-13T19:11:19.892Z,74.27
2018-02-13T19:13:46.305Z,73.96
2018-02-13T19:16:12.820Z,73.58
2018-02-13T19:18:39.205Z,73.64
2018-02-13T19:21:05.604Z,73.47
2018-02-13T19:23:32.174Z,73.57
2018-02-13T19:25:58.703Z,74.16
2018-02-13T19:28:25.265Z,73.95
2018-02-13T19:30:51.805Z,74.60
2018-02-13T19:33:18.245Z,74.81
2018-02-13T19:35:44.629Z,74.42
2018-02-13T19:38:11.092Z,74.57
2018-02-13T19:40:37.483Z,74.03
2018-02-13T19:43:03.934Z,73.67
2018-02-13T19:45:30.349Z,73.84
2018-02-13T19:47:56.784Z,73.83
2018-02-13T19:50:23.932Z,74.10
2018-02-13T19:52:50.369Z,73.89
2018-02-13T19:55:16.832Z,74.41
2018-02-13T19:57:43.231Z,74.33
2018-02-13T20:00:09.856Z,74.32
2018-02-13T20:02:37.223Z,74.14
2018-02-13T20:05:03.644Z,73.84
2018-02-13T20:07:30.026Z,74.14
2018-02-13T20:09:56.464Z,74.17
2018-02-13T20:12:22.960Z,73.83
2018-02-13T20:14:49.425Z,73.53
2018-02-13T20:17:15.996Z,73.33
2018-02-13T20:19:42.353Z,73.85
2018-02-13T20:22:08.724Z,73.54
2018-02-13T20:24:35.177Z,73.70
2018-02-13T20:27:01.641Z,73.47
2018-02-13T20:29:28.201Z,73.47
2018-02-13T20:31:54.696Z,73.91
2018-02-13T20:34:21.245Z,74.36
2018-02-13T20:36:47.715Z,74.12
2018-02-13T20:39:14.234Z,74.64
2018-02-13T20:41:40.601Z,75.29
2018-02-13T20:44:06.999Z,74.95
2018-02-13T20:46:33.412Z,75.30
2018-02-13T20:48:59.871Z,74.78
2018-02-13T20:51:26.341Z,74.73
2018-02-13T20:53:52.781Z,74.74
2018-02-13T20:56:19.212Z,75.28
2018-02-13T20:58:45.629Z,74.86
2018-02-13T21:01:12.112Z,74.75
2018-02-13T21:03:38.502Z,74.79
2018-02-13T21:06:04.977Z,74.72
2018-02-13T21:08:31.539Z,74.56
2018-02-13T21:10:58.025Z,74.85
2018-02-13T21:13:24.585Z,74.46
2018-02-13T21:15:51.018Z,75.57
2018-02-13T21:18:17.497Z,75.33
2018-02-13T21:20:44.032Z,75.82
2018-02-13T21:23:10.452Z,76.38
2018-02-13T21:25:36.890Z,75.40
2018-02-13T21:28:03.345Z,76.17
2018-02-13T21:30:29.720Z,75.59
2018-02-13T21:32:56.258Z,75.06
2018-02-13T21:35:22.689Z,74.90
2018-02-13T21:37:49.130Z,75.20
2018-02-13T21:40:15.601Z,75.01
2018-02-13T21:42:41.997Z,75.28
2018-02-13T21:45:08.521Z,75.21
2018-02-13T21:47:35.125Z,74.69
2018-02-13T21:50:01.521Z,74.29
2018-02-13T21:52:28.007Z,74.23
2018-02-13T21:54:54.442Z,75.43
2018-02-13T21:57:21.113Z,74.99
2018-02-13T21:59:47.485Z,74.54
2018-02-13T22:02:13.831Z,74.46
2018-02-13T22:04:40.300Z,74.58
2018-02-13T22:07:06.704Z,75.39
2018-02-13T22:09:33.073Z,75.71
2018-02-13T22:11:59.705Z,74.95
2018-02-13T22:14:26.109Z,75.02
2018-02-13T22:16:52.546Z,75.89
2018-02-13T22:19:19.000Z,75.60
2018-02-13T22:21:45.460Z,75.44
2018-02-13T22:24:11.849Z,75.17
2018-02-13T22:26:38.293Z,75.22
2018-02-13T22:29:04.821Z,75.97
2018-02-13T22:31:31.220Z,76.11
2018-02-13T22:33:57.640Z,76.10
2018-02-13T22:36:24.032Z,75.48
2018-02-13T22:38:50.424Z,76.72
2018-02-13T22:41:16.797Z,77.40
2018-02-13T22:43:43.333Z,77.40
2018-02-13T22:46:09.747Z,77.10
2018-02-13T22:48:36.218Z,75.79
2018-02-13T22:51:02.597Z,75.82
2018-02-13T22:53:28.988Z,76.45
2018-02-13T22:55:55.441Z,75.98
2018-02-13T22:58:22.085Z,76.49
2018-02-13T23:00:48.528Z,76.21
2018-02-13T23:03:14.956Z,76.14
2018-02-13T23:05:41.590Z,77.12
2018-02-13T23:08:08.197Z,77.11
2018-02-13T23:10:34.916Z,75.93
2018-02-13T23:13:01.485Z,75.63
2018-02-13T23:15:28.263Z,75.33
2018-02-13T23:17:54.689Z,76.38
2018-02-13T23:20:21.085Z,76.66
2018-02-13T23:22:47.734Z,76.49
2018-02-13T23:25:14.337Z,77.85
2018-02-13T23:27:40.800Z,77.52
2018-02-13T23:30:07.450Z,77.13
2018-02-13T23:32:34.149Z,75.72
2018-02-13T23:35:00.537Z,76.23
2018-02-13T23:37:26.914Z,76.38
2018-02-13T23:39:53.316Z,77.78
2018-02-13T23:42:19.701Z,79.17
2018-02-13T23:44:46.078Z,79.60
2018-02-13T23:47:13.593Z,78.45
2018-02-13T23:49:40.783Z,76.89
2018-02-13T23:52:07.336Z,77.24
2018-02-13T23:54:33.789Z,77.38
2018-02-13T23:57:00.173Z,77.83
2018-02-13T23:59:26.533Z,77.92
